createdAt,value
2018-01-16T00:02:06.170Z,6.20
2018-01-16T00:05:07.656Z,6.20
2018-01-16T00:08:09.244Z,6.30
2018-01-16T00:11:10.921Z,6.20
2018-01-16T00:14:13.196Z,6.20
2018-01-16T00:17:15.501Z,6.30
2018-01-16T00:20:17.004Z,6.20
2018-01-16T00:23:18.471Z,6.30
2018-01-16T00:26:19.992Z,6.30
2018-01-16T00:29:21.618Z,6.30
2018-01-16T00:32:23.025Z,6.30
2018-01-16T00:35:24.480Z,6.10
2018-01-16T00:38:25.939Z,6.40
2018-01-16T00:41:27.529Z,6.30
2018-01-16T00:44:29.158Z,6.30
2018-01-16T00:47:30.726Z,6.40
2018-01-16T00:50:33.015Z,6.30
2018-01-16T00:53:34.617Z,6.30
2018-01-16T00:56:36.218Z,6.30
2018-01-16T00:59:38.559Z,6.20
2018-01-16T01:02:40.176Z,6.30
2018-01-16T01:05:41.872Z,6.20
2018-01-16T01:08:43.447Z,6.20
2018-01-16T01:11:45.858Z,6.30
2018-01-16T01:14:47.460Z,6.20
2018-01-16T01:17:48.960Z,6.40
2018-01-16T01:20:50.528Z,6.20
2018-01-16T01:23:52.144Z,6.20
2018-01-16T01:26:54.394Z,6.20
2018-01-16T01:29:55.966Z,6.20
2018-01-16T01:32:57.475Z,6.20
2018-01-16T01:35:59.114Z,6.20
2018-01-16T01:39:01.510Z,6.20
2018-01-16T01:42:03.158Z,6.20
2018-01-16T01:45:04.618Z,6.10
2018-01-16T01:48:06.024Z,6.00
2018-01-16T01:51:08.273Z,6.20
2018-01-16T01:54:09.841Z,6.10
2018-01-16T01:57:11.982Z,6.10
2018-01-16T02:00:13.489Z,6.00
2018-01-16T02:03:14.933Z,5.90
2018-01-16T02:06:17.123Z,6.10
2018-01-16T02:09:18.524Z,6.00
2018-01-16T02:12:20.070Z,6.10
2018-01-16T02:15:21.517Z,6.00
2018-01-16T02:18:22.965Z,6.00
2018-01-16T02:21:24.413Z,6.10
2018-01-16T02:24:25.853Z,6.00
2018-01-16T02:27:27.269Z,6.10
2018-01-16T02:30:29.437Z,6.10
2018-01-16T02:33:31.667Z,6.10
2018-01-16T02:36:33.096Z,6.20
2018-01-16T02:39:34.574Z,6.10
2018-01-16T02:42:36.106Z,6.10
2018-01-16T02:45:37.612Z,6.00
2018-01-16T02:48:39.152Z,6.10
2018-01-16T02:51:40.719Z,6.10
2018-01-16T02:54:42.359Z,6.20
2018-01-16T02:57:44.651Z,6.10
2018-01-16T03:00:46.085Z,6.10
2018-01-16T03:03:47.575Z,6.10
2018-01-16T03:06:49.731Z,6.00
2018-01-16T03:09:51.130Z,6.10
2018-01-16T03:12:52.565Z,6.00
2018-01-16T03:15:54.721Z,6.10
2018-01-16T03:18:56.872Z,6.10
2018-01-16T03:21:58.282Z,6.10
2018-01-16T03:24:59.684Z,6.10
2018-01-16T03:28:01.809Z,6.10
2018-01-16T03:31:03.256Z,6.20
2018-01-16T03:34:04.688Z,6.10
2018-01-16T03:37:06.100Z,6.20
2018-01-16T03:40:07.562Z,6.10
2018-01-16T03:43:09.792Z,6.10
2018-01-16T03:46:11.235Z,6.10
2018-01-16T03:49:12.731Z,6.20
2018-01-16T03:52:14.127Z,6.00
2018-01-16T03:55:15.608Z,6.20
2018-01-16T03:58:17.075Z,6.10
2018-01-16T04:01:18.555Z,6.20
2018-01-16T04:04:20.004Z,6.20
2018-01-16T04:07:21.421Z,6.20
2018-01-16T04:10:23.079Z,6.30
2018-01-16T04:13:24.509Z,6.30
2018-01-16T04:16:26.042Z,6.20
2018-01-16T04:19:28.213Z,6.00
2018-01-16T04:22:30.358Z,5.80
2018-01-16T04:25:31.790Z,5.80
2018-01-16T04:28:33.195Z,5.50
2018-01-16T04:31:35.315Z,5.50
2018-01-16T04:34:36.748Z,5.40
2018-01-16T04:37:38.206Z,5.60
2018-01-16T04:40:39.623Z,5.60
2018-01-16T04:43:41.852Z,5.60
2018-01-16T04:46:43.298Z,5.70
2018-01-16T04:49:44.775Z,5.70
2018-01-16T04:52:46.311Z,5.70
2018-01-16T04:55:47.838Z,5.80
2018-01-16T04:58:49.398Z,5.80
2018-01-16T05:01:50.883Z,6.00
2018-01-16T05:04:52.334Z,5.90
2018-01-16T05:07:53.711Z,5.90
2018-01-16T05:10:55.890Z,5.90
2018-01-16T05:13:58.043Z,5.90
2018-01-16T05:16:59.448Z,5.70
2018-01-16T05:20:00.993Z,5.80
2018-01-16T05:23:02.399Z,6.00
2018-01-16T05:26:03.816Z,6.00
2018-01-16T05:29:05.264Z,6.00
2018-01-16T05:32:06.753Z,6.10
2018-01-16T05:35:08.196Z,6.20
2018-01-16T05:38:09.629Z,6.20
2018-01-16T05:41:11.148Z,6.10
2018-01-16T05:44:12.613Z,6.10
2018-01-16T05:47:14.242Z,6.10
2018-01-16T05:50:16.577Z,6.10
2018-01-16T05:53:18.199Z,6.10
2018-01-16T05:56:19.690Z,5.90
2018-01-16T05:59:21.173Z,6.10
2018-01-16T06:02:22.679Z,6.20
2018-01-16T06:05:24.069Z,6.20
2018-01-16T06:08:25.480Z,6.10
2018-01-16T06:11:26.940Z,6.30
2018-01-16T06:14:28.365Z,6.10
2018-01-16T06:17:29.793Z,6.10
2018-01-16T06:20:31.310Z,6.10
2018-01-16T06:23:32.805Z,6.10
2018-01-16T06:26:34.957Z,6.10
2018-01-16T06:29:36.435Z,6.10
2018-01-16T06:32:38.589Z,6.10
2018-01-16T06:35:40.046Z,6.10
2018-01-16T06:38:42.165Z,6.10
2018-01-16T06:41:43.577Z,6.10
2018-01-16T06:44:45.751Z,6.10
2018-01-16T06:47:47.864Z,6.10
2018-01-16T06:50:50.039Z,6.10
2018-01-16T06:53:51.398Z,6.00
2018-01-16T06:56:52.832Z,6.20
2018-01-16T06:59:54.269Z,6.10
2018-01-16T07:02:55.715Z,6.10
2018-01-16T07:05:57.186Z,5.90
2018-01-16T07:08:58.676Z,6.20
2018-01-16T07:12:00.131Z,6.20
2018-01-16T07:18:11.109Z,6.40
2018-01-16T07:21:12.530Z,6.30
2018-01-16T07:24:13.967Z,6.20
2018-01-16T07:27:15.972Z,6.40
2018-01-16T07:30:17.322Z,6.30
2018-01-16T07:33:18.644Z,6.30
2018-01-16T07:36:19.921Z,6.40
2018-01-16T07:39:21.272Z,6.30
2018-01-16T07:42:22.648Z,6.40
2018-01-16T07:45:23.980Z,6.20
2018-01-16T07:48:25.313Z,6.10
2018-01-16T07:51:26.637Z,6.00
2018-01-16T07:54:27.952Z,6.00
2018-01-16T07:57:29.294Z,5.80
2018-01-16T08:00:30.650Z,5.60
2018-01-16T08:03:31.933Z,5.70
2018-01-16T08:06:34.601Z,5.70
2018-01-16T08:09:36.661Z,5.70
2018-01-16T08:12:38.098Z,5.60
2018-01-16T08:15:39.623Z,5.60
2018-01-16T08:18:41.187Z,5.60
2018-01-16T08:21:42.554Z,5.70
2018-01-16T08:24:44.014Z,5.70
2018-01-16T08:27:45.391Z,5.60
2018-01-16T08:30:48.249Z,5.70
2018-01-16T08:33:49.769Z,5.70
2018-01-16T08:36:51.096Z,5.70
2018-01-16T08:39:52.991Z,5.80
2018-01-16T08:42:54.610Z,5.80
2018-01-16T08:45:55.966Z,5.80
2018-01-16T08:48:57.323Z,5.90
2018-01-16T08:51:58.693Z,6.00
2018-01-16T08:55:00.398Z,6.00
2018-01-16T08:58:02.524Z,6.10
2018-01-16T09:01:03.939Z,6.00
2018-01-16T09:04:05.367Z,6.10
2018-01-16T09:07:06.718Z,6.20
2018-01-16T09:10:08.065Z,6.20
2018-01-16T09:13:09.386Z,5.90
2018-01-16T09:16:10.776Z,6.10
2018-01-16T09:19:12.889Z,6.10
2018-01-16T09:22:14.935Z,6.10
2018-01-16T09:25:16.251Z,6.00
2018-01-16T09:28:18.339Z,6.10
2018-01-16T09:31:19.722Z,6.10
2018-01-16T09:34:21.080Z,6.00
2018-01-16T09:37:22.414Z,6.20
2018-01-16T09:40:23.739Z,6.20
2018-01-16T09:43:25.819Z,6.20
2018-01-16T09:46:27.363Z,6.30
2018-01-16T09:49:29.372Z,6.30
2018-01-16T09:52:30.693Z,6.20
2018-01-16T09:55:32.749Z,6.20
2018-01-16T09:58:34.096Z,6.20
2018-01-16T10:01:35.428Z,6.00
2018-01-16T10:04:36.766Z,5.90
2018-01-16T10:07:38.085Z,5.80
2018-01-16T10:10:39.341Z,5.20
2018-01-16T10:13:40.627Z,4.90
2018-01-16T10:16:42.613Z,4.40
2018-01-16T10:19:43.945Z,4.40
2018-01-16T10:22:46.077Z,4.20
2018-01-16T10:25:47.396Z,4.10
2018-01-16T10:28:48.759Z,4.10
2018-01-16T10:31:50.028Z,4.10
2018-01-16T10:34:51.392Z,4.30
2018-01-16T10:37:52.714Z,4.10
2018-01-16T10:40:54.040Z,4.00
2018-01-16T10:43:55.353Z,4.10
2018-01-16T10:46:57.457Z,4.10
2018-01-16T10:49:58.818Z,4.10
2018-01-16T10:53:00.136Z,4.10
2018-01-16T10:56:02.260Z,4.10
2018-01-16T10:59:03.600Z,4.10
2018-01-16T11:02:04.975Z,4.20
2018-01-16T11:05:06.220Z,4.10
2018-01-16T11:08:07.547Z,4.10
2018-01-16T11:11:08.853Z,4.10
2018-01-16T11:14:10.230Z,4.20
2018-01-16T11:17:11.562Z,4.40
2018-01-16T11:20:12.862Z,4.50
2018-01-16T11:23:14.178Z,4.40
2018-01-16T11:26:15.479Z,4.40
2018-01-16T11:29:16.771Z,4.50
2018-01-16T11:32:18.032Z,4.40
2018-01-16T11:35:19.384Z,4.60
2018-01-16T11:38:20.629Z,4.50
2018-01-16T11:41:21.938Z,4.40
2018-01-16T11:44:24.013Z,4.60
2018-01-16T11:47:25.999Z,4.70
2018-01-16T11:50:27.310Z,4.60
2018-01-16T11:53:28.603Z,4.70
2018-01-16T11:56:29.912Z,4.60
2018-01-16T11:59:31.936Z,4.60
2018-01-16T12:02:33.253Z,4.60
2018-01-16T12:05:34.604Z,4.60
2018-01-16T12:08:35.864Z,4.60
2018-01-16T12:11:37.162Z,4.60
2018-01-16T12:14:38.475Z,4.70
2018-01-16T12:17:40.520Z,4.70
2018-01-16T12:20:41.822Z,4.70
2018-01-16T12:23:43.133Z,4.70
2018-01-16T12:26:44.485Z,4.70
2018-01-16T12:29:45.744Z,4.80
2018-01-16T12:32:47.014Z,4.80
2018-01-16T12:35:48.401Z,4.90
2018-01-16T12:38:49.646Z,4.70
2018-01-16T12:41:51.635Z,4.90
2018-01-16T12:44:52.933Z,4.90
2018-01-16T12:47:54.205Z,5.00
2018-01-16T12:50:56.253Z,5.00
2018-01-16T12:53:57.569Z,5.00
2018-01-16T12:56:58.851Z,5.00
2018-01-16T13:00:00.149Z,5.00
2018-01-16T13:03:01.426Z,5.10
2018-01-16T13:06:02.756Z,5.00
2018-01-16T13:09:04.044Z,4.90
2018-01-16T13:12:05.324Z,5.00
2018-01-16T13:15:06.640Z,5.00
2018-01-16T13:18:07.911Z,4.90
2018-01-16T13:21:09.944Z,5.00
2018-01-16T13:24:11.231Z,5.00
2018-01-16T13:27:13.529Z,5.10
2018-01-16T13:30:15.088Z,5.10
2018-01-16T13:33:16.397Z,5.10
2018-01-16T13:36:18.399Z,5.10
2018-01-16T13:39:19.670Z,5.10
2018-01-16T13:42:20.973Z,5.20
2018-01-16T13:45:22.240Z,5.00
2018-01-16T13:48:23.827Z,5.00
2018-01-16T13:51:26.063Z,5.10
2018-01-16T13:54:27.318Z,5.10
2018-01-16T13:57:29.026Z,5.00
2018-01-16T14:00:31.049Z,5.00
2018-01-16T14:03:32.302Z,5.00
2018-01-16T14:06:33.962Z,5.00
2018-01-16T14:09:36.314Z,5.00
2018-01-16T14:12:37.968Z,5.10
2018-01-16T14:15:39.325Z,5.10
2018-01-16T14:18:40.584Z,5.00
2018-01-16T14:21:41.876Z,4.90
2018-01-16T14:24:43.215Z,5.00
2018-01-16T14:27:44.497Z,4.90
2018-01-16T14:30:46.543Z,4.30
2018-01-16T14:33:47.843Z,4.30
2018-01-16T14:36:49.208Z,4.20
2018-01-16T14:39:50.462Z,4.10
2018-01-16T14:42:51.755Z,4.00
2018-01-16T14:45:53.934Z,3.90
2018-01-16T14:48:55.994Z,4.00
2018-01-16T14:51:58.646Z,3.90
2018-01-16T14:55:00.707Z,3.90
2018-01-16T14:58:03.124Z,4.00
2018-01-16T15:01:06.413Z,3.90
2018-01-16T15:04:09.794Z,4.00
2018-01-16T15:07:11.339Z,4.00
2018-01-16T15:10:13.293Z,4.10
2018-01-16T15:13:15.525Z,4.20
2018-01-16T15:16:18.506Z,4.20
2018-01-16T15:19:20.778Z,4.20
2018-01-16T15:22:23.154Z,4.20
2018-01-16T15:25:26.613Z,4.10
2018-01-16T15:28:29.045Z,4.20
2018-01-16T15:31:30.593Z,4.10
2018-01-16T15:34:32.429Z,4.20
2018-01-16T15:37:34.559Z,4.10
2018-01-16T15:40:36.206Z,4.20
2018-01-16T15:43:37.457Z,4.20
2018-01-16T15:46:38.737Z,4.20
2018-01-16T15:49:41.983Z,4.40
2018-01-16T15:52:45.505Z,4.20
2018-01-16T15:55:47.440Z,4.40
2018-01-16T15:58:48.956Z,4.90
2018-01-16T16:01:51.429Z,4.80
2018-01-16T16:04:53.452Z,4.40
2018-01-16T16:07:57.871Z,4.40
2018-01-16T16:10:59.170Z,4.40
2018-01-16T16:14:01.189Z,4.40
2018-01-16T16:17:03.069Z,4.30
2018-01-16T16:20:06.341Z,4.30
2018-01-16T16:23:07.575Z,4.20
2018-01-16T16:26:09.826Z,4.20
2018-01-16T16:29:12.949Z,4.10
2018-01-16T16:32:14.506Z,4.10
2018-01-16T16:35:16.576Z,3.90
2018-01-16T16:38:20.801Z,3.80
2018-01-16T16:41:22.461Z,3.90
2018-01-16T16:44:23.768Z,3.90
2018-01-16T16:47:25.193Z,3.70
2018-01-16T16:50:28.257Z,4.00
2018-01-16T16:53:30.630Z,3.90
2018-01-16T16:56:32.469Z,3.90
2018-01-16T16:59:34.872Z,3.70
2018-01-16T17:02:36.350Z,3.90
2018-01-16T17:05:37.722Z,3.90
2018-01-16T17:08:39.851Z,3.90
2018-01-16T17:11:41.867Z,3.80
2018-01-16T17:14:43.862Z,3.80
2018-01-16T17:17:45.932Z,3.90
2018-01-16T17:20:48.603Z,3.70
2018-01-16T17:23:51.912Z,3.90
2018-01-16T17:26:53.655Z,3.90
2018-01-16T17:29:55.061Z,3.60
2018-01-16T17:32:57.887Z,3.90
2018-01-16T17:35:59.308Z,3.70
2018-01-16T17:39:00.707Z,3.80
2018-01-16T17:42:04.635Z,3.90
2018-01-16T17:45:06.174Z,3.80
2018-01-16T17:48:07.650Z,3.70
2018-01-16T17:51:09.129Z,3.70
2018-01-16T17:54:10.546Z,3.80
2018-01-16T17:57:11.821Z,3.70
2018-01-16T18:00:14.519Z,4.10
2018-01-16T18:03:17.715Z,3.90
2018-01-16T18:06:19.902Z,3.80
2018-01-16T18:09:21.915Z,3.90
2018-01-16T18:12:23.260Z,3.90
2018-01-16T18:15:25.610Z,3.90
2018-01-16T18:18:27.244Z,3.80
2018-01-16T18:21:28.760Z,3.90
2018-01-16T18:24:33.977Z,4.00
2018-01-16T18:27:35.862Z,4.00
2018-01-16T18:30:39.086Z,4.10
2018-01-16T18:33:41.372Z,4.20
2018-01-16T18:36:43.545Z,4.20
2018-01-16T18:39:44.817Z,4.20
2018-01-16T18:42:46.120Z,4.20
2018-01-16T18:45:47.416Z,4.20
2018-01-16T18:48:48.726Z,4.20
2018-01-16T18:51:50.785Z,4.20
2018-01-16T18:54:52.059Z,4.20
2018-01-16T18:57:53.317Z,4.20
2018-01-16T19:00:54.624Z,4.10
2018-01-16T19:03:56.127Z,4.30
2018-01-16T19:06:57.427Z,4.50
2018-01-16T19:09:59.563Z,4.20
2018-01-16T19:13:04.212Z,3.90
2018-01-16T19:16:10.746Z,3.90
2018-01-16T19:19:15.971Z,3.90
2018-01-16T19:22:23.993Z,3.90
2018-01-16T19:25:25.304Z,3.80
2018-01-16T19:28:27.364Z,3.80
2018-01-16T19:31:28.736Z,3.80
2018-01-16T19:34:30.029Z,4.10
2018-01-16T19:37:31.284Z,3.90
2018-01-16T19:40:32.624Z,3.80
2018-01-16T19:43:33.901Z,3.80
2018-01-16T19:46:35.406Z,3.80
2018-01-16T19:49:36.838Z,3.90
2018-01-16T19:52:38.261Z,3.80
2018-01-16T19:55:39.717Z,3.80
2018-01-16T19:58:41.983Z,3.80
2018-01-16T20:01:43.431Z,3.80
2018-01-16T20:04:44.785Z,3.90
2018-01-16T20:07:46.260Z,3.90
2018-01-16T20:10:48.271Z,3.80
2018-01-16T20:13:49.743Z,3.90
2018-01-16T20:16:51.869Z,3.80
2018-01-16T20:19:53.296Z,3.60
2018-01-16T20:22:55.447Z,3.90
2018-01-16T20:25:56.751Z,3.90
2018-01-16T20:28:58.429Z,3.70
2018-01-16T20:31:59.848Z,4.00
2018-01-16T20:35:01.219Z,3.90
2018-01-16T20:38:02.679Z,4.10
2018-01-16T20:41:04.013Z,3.90
2018-01-16T20:44:05.366Z,3.90
2018-01-16T20:47:06.699Z,4.00
2018-01-16T20:50:08.225Z,4.00
2018-01-16T20:53:10.585Z,4.00
2018-01-16T20:56:12.087Z,4.00
2018-01-16T20:59:14.526Z,4.00
2018-01-16T21:02:15.849Z,3.90
2018-01-16T21:05:18.033Z,3.80
2018-01-16T21:08:19.358Z,3.80
2018-01-16T21:11:20.852Z,3.80
2018-01-16T21:14:22.185Z,3.80
2018-01-16T21:17:24.534Z,3.70
2018-01-16T21:20:25.872Z,4.00
2018-01-16T21:23:27.327Z,3.90
2018-01-16T21:26:29.550Z,4.00
2018-01-16T21:29:30.973Z,3.90
2018-01-16T21:32:32.372Z,3.90
2018-01-16T21:35:34.465Z,4.00
2018-01-16T21:38:36.167Z,4.00
2018-01-16T21:41:38.665Z,4.00
2018-01-16T21:44:41.110Z,4.00
2018-01-16T21:47:43.516Z,4.00
2018-01-16T21:50:45.291Z,4.00
2018-01-16T21:53:46.977Z,4.00
2018-01-16T21:56:48.538Z,3.80
2018-01-16T21:59:50.297Z,4.10
2018-01-16T22:02:52.012Z,4.00
2018-01-16T22:05:53.382Z,4.10
2018-01-16T22:08:54.799Z,3.90
2018-01-16T22:11:56.130Z,4.00
2018-01-16T22:14:57.614Z,4.00
2018-01-16T22:17:59.881Z,4.10
2018-01-16T22:21:01.349Z,4.10
2018-01-16T22:24:02.876Z,4.00
2018-01-16T22:27:04.262Z,3.90
2018-01-16T22:30:05.694Z,3.90
2018-01-16T22:33:07.772Z,4.10
2018-01-16T22:36:09.866Z,4.10
2018-01-16T22:39:11.198Z,4.10
2018-01-16T22:42:12.579Z,4.10
2018-01-16T22:50:37.152Z,4.20
2018-01-16T22:53:38.493Z,4.10
2018-01-16T22:56:39.926Z,4.00
2018-01-16T22:59:41.254Z,4.10
2018-01-16T23:02:42.602Z,4.10
2018-01-16T23:05:43.946Z,4.00
2018-01-16T23:08:45.300Z,4.00
2018-01-16T23:11:46.609Z,3.70
2018-01-16T23:14:48.688Z,4.00
2018-01-16T23:17:50.121Z,4.20
2018-01-16T23:20:51.396Z,4.00
2018-01-16T23:23:52.806Z,4.30
2018-01-16T23:26:54.091Z,4.10
2018-01-16T23:29:55.440Z,4.10
2018-01-16T23:32:57.601Z,4.10
2018-01-16T23:35:59.680Z,4.10
2018-01-16T23:39:01.050Z,4.20
2018-01-16T23:42:02.377Z,4.20
2018-01-16T23:45:03.748Z,4.20
2018-01-16T23:48:05.093Z,4.20
2018-01-16T23:51:06.452Z,4.20
2018-01-16T23:54:07.747Z,4.20
2018-01-16T23:57:09.224Z,4.30
